sensor_id;sensor_type;location;lat;lon;timestamp;P1;durP1;ratioP1;P2;durP2;ratioP2
62056;SDS011;48016;50.284;18.860;2023-03-20T00:01:22;32.60;;;17.60;;
62056;SDS011;48016;50.284;18.860;2023-03-20T00:03:51;28.60;;;17.20;;
62056;SDS011;48016;50.284;18.860;2023-03-20T00:06:19;30.40;;;16.60;;
62056;SDS011;48016;50.284;18.860;2023-03-20T00:08:51;30.90;;;17.20;;
62056;SDS011;48016;50.284;18.860;2023-03-20T00:13:52;28.90;;;16.80;;
62056;SDS011;48016;50.284;18.860;2023-03-20T00:16:24;26.40;;;15.90;;
62056;SDS011;48016;50.284;18.860;2023-03-20T00:18:56;31.10;;;16.40;;
62056;SDS011;48016;50.284;18.860;2023-03-20T00:23:50;24.50;;;14.50;;
62056;SDS011;48016;50.284;18.860;2023-03-20T00:26:19;28.50;;;15.90;;
62056;SDS011;48016;50.284;18.860;2023-03-20T00:28:53;28.50;;;15.80;;
62056;SDS011;48016;50.284;18.860;2023-03-20T00:31:28;31.90;;;17.10;;
62056;SDS011;48016;50.284;18.860;2023-03-20T00:33:58;28.90;;;16.50;;
62056;SDS011;48016;50.284;18.860;2023-03-20T00:36:26;27.10;;;15.40;;
62056;SDS011;48016;50.284;18.860;2023-03-20T00:38:53;26.90;;;15.60;;
62056;SDS011;48016;50.284;18.860;2023-03-20T00:41:25;27.40;;;15.30;;
62056;SDS011;48016;50.284;18.860;2023-03-20T00:43:58;26.40;;;16.20;;
62056;SDS011;48016;50.284;18.860;2023-03-20T00:46:28;31.80;;;16.60;;
62056;SDS011;48016;50.284;18.860;2023-03-20T00:49:00;28.60;;;17.60;;
62056;SDS011;48016;50.284;18.860;2023-03-20T00:51:28;26.40;;;18.60;;
62056;SDS011;48016;50.284;18.860;2023-03-20T00:53:55;28.30;;;19.00;;
62056;SDS011;48016;50.284;18.860;2023-03-20T00:56:32;35.00;;;19.60;;
62056;SDS011;48016;50.284;18.860;2023-03-20T00:59:02;28.20;;;17.60;;
62056;SDS011;48016;50.284;18.860;2023-03-20T01:01:29;27.80;;;17.50;;
62056;SDS011;48016;50.284;18.860;2023-03-20T01:03:58;26.10;;;18.40;;
62056;SDS011;48016;50.284;18.860;2023-03-20T01:06:25;25.80;;;16.90;;
62056;SDS011;48016;50.284;18.860;2023-03-20T01:08:54;27.50;;;16.20;;
62056;SDS011;48016;50.284;18.860;2023-03-20T01:11:23;25.90;;;16.20;;
62056;SDS011;48016;50.284;18.860;2023-03-20T01:13:50;28.30;;;17.90;;
62056;SDS011;48016;50.284;18.860;2023-03-20T01:16:21;28.60;;;17.50;;
62056;SDS011;48016;50.284;18.860;2023-03-20T01:18:49;23.60;;;16.20;;
62056;SDS011;48016;50.284;18.860;2023-03-20T01:21:17;25.20;;;17.00;;
62056;SDS011;48016;50.284;18.860;2023-03-20T01:23:44;25.10;;;16.20;;
62056;SDS011;48016;50.284;18.860;2023-03-20T01:26:33;23.80;;;16.00;;
62056;SDS011;48016;50.284;18.860;2023-03-20T01:29:22;28.00;;;17.40;;
62056;SDS011;48016;50.284;18.860;2023-03-20T01:31:50;23.50;;;14.70;;
62056;SDS011;48016;50.284;18.860;2023-03-20T01:34:18;22.90;;;14.80;;
62056;SDS011;48016;50.284;18.860;2023-03-20T01:36:54;26.30;;;15.50;;
62056;SDS011;48016;50.284;18.860;2023-03-20T01:39:34;26.80;;;15.10;;
62056;SDS011;48016;50.284;18.860;2023-03-20T01:42:02;22.60;;;14.50;;
62056;SDS011;48016;50.284;18.860;2023-03-20T01:44:31;23.20;;;14.20;;
62056;SDS011;48016;50.284;18.860;2023-03-20T01:47:00;23.20;;;14.80;;
62056;SDS011;48016;50.284;18.860;2023-03-20T01:52:33;23.50;;;14.80;;
62056;SDS011;48016;50.284;18.860;2023-03-20T01:55:00;24.20;;;13.60;;
62056;SDS011;48016;50.284;18.860;2023-03-20T01:57:29;21.50;;;13.40;;
62056;SDS011;48016;50.284;18.860;2023-03-20T02:00:00;22.00;;;13.10;;
62056;SDS011;48016;50.284;18.860;2023-03-20T02:02:30;21.50;;;13.10;;
62056;SDS011;48016;50.284;18.860;2023-03-20T02:05:02;20.80;;;12.30;;
62056;SDS011;48016;50.284;18.860;2023-03-20T02:07:36;23.30;;;13.00;;
62056;SDS011;48016;50.284;18.860;2023-03-20T02:10:05;22.90;;;13.30;;
62056;SDS011;48016;50.284;18.860;2023-03-20T02:12:35;22.60;;;12.70;;
62056;SDS011;48016;50.284;18.860;2023-03-20T02:15:04;20.80;;;12.80;;
62056;SDS011;48016;50.284;18.860;2023-03-20T02:17:33;24.90;;;13.80;;
62056;SDS011;48016;50.284;18.860;2023-03-20T02:25:14;21.20;;;12.70;;
62056;SDS011;48016;50.284;18.860;2023-03-20T02:30:57;22.40;;;13.00;;
62056;SDS011;48016;50.284;18.860;2023-03-20T02:39:55;22.30;;;13.80;;
62056;SDS011;48016;50.284;18.860;2023-03-20T02:45:13;27.60;;;14.40;;
62056;SDS011;48016;50.284;18.860;2023-03-20T02:56:19;24.10;;;15.40;;
62056;SDS011;48016;50.284;18.860;2023-03-20T03:01:45;26.20;;;15.40;;
62056;SDS011;48016;50.284;18.860;2023-03-20T03:04:19;27.80;;;15.00;;
62056;SDS011;48016;50.284;18.860;2023-03-20T03:06:51;25.20;;;15.70;;
62056;SDS011;48016;50.284;18.860;2023-03-20T03:09:30;25.40;;;16.30;;
62056;SDS011;48016;50.284;18.860;2023-03-20T03:12:47;23.60;;;14.70;;
62056;SDS011;48016;50.284;18.860;2023-03-20T03:15:09;28.90;;;15.60;;
62056;SDS011;48016;50.284;18.860;2023-03-20T03:17:41;27.20;;;15.90;;
62056;SDS011;48016;50.284;18.860;2023-03-20T03:20:18;26.60;;;15.20;;
62056;SDS011;48016;50.284;18.860;2023-03-20T03:22:49;27.60;;;16.10;;
62056;SDS011;48016;50.284;18.860;2023-03-20T03:25:16;24.30;;;15.80;;
62056;SDS011;48016;50.284;18.860;2023-03-20T03:27:43;29.80;;;15.60;;
62056;SDS011;48016;50.284;18.860;2023-03-20T03:30:18;27.30;;;16.60;;
62056;SDS011;48016;50.284;18.860;2023-03-20T03:35:36;26.40;;;16.60;;
62056;SDS011;48016;50.284;18.860;2023-03-20T03:38:12;26.60;;;17.00;;
62056;SDS011;48016;50.284;18.860;2023-03-20T03:41:11;29.20;;;17.00;;
62056;SDS011;48016;50.284;18.860;2023-03-20T03:43:46;24.70;;;16.90;;
62056;SDS011;48016;50.284;18.860;2023-03-20T03:49:20;25.80;;;16.10;;
62056;SDS011;48016;50.284;18.860;2023-03-20T03:51:52;27.70;;;17.20;;
62056;SDS011;48016;50.284;18.860;2023-03-20T03:57:06;27.00;;;16.90;;
62056;SDS011;48016;50.284;18.860;2023-03-20T03:59:36;27.90;;;18.20;;
62056;SDS011;48016;50.284;18.860;2023-03-20T04:02:06;29.00;;;17.30;;
62056;SDS011;48016;50.284;18.860;2023-03-20T04:04:34;30.10;;;17.90;;
62056;SDS011;48016;50.284;18.860;2023-03-20T04:07:07;27.30;;;17.20;;
62056;SDS011;48016;50.284;18.860;2023-03-20T04:09:34;28.10;;;17.50;;
62056;SDS011;48016;50.284;18.860;2023-03-20T04:12:01;26.30;;;16.50;;
62056;SDS011;48016;50.284;18.860;2023-03-20T04:14:28;27.10;;;17.40;;
62056;SDS011;48016;50.284;18.860;2023-03-20T04:16:54;29.40;;;18.80;;
62056;SDS011;48016;50.284;18.860;2023-03-20T04:19:21;27.10;;;16.80;;
62056;SDS011;48016;50.284;18.860;2023-03-20T04:21:47;27.60;;;16.70;;
62056;SDS011;48016;50.284;18.860;2023-03-20T04:24:14;30.10;;;17.70;;
62056;SDS011;48016;50.284;18.860;2023-03-20T04:26:41;28.00;;;17.20;;
62056;SDS011;48016;50.284;18.860;2023-03-20T04:29:08;29.60;;;18.60;;
62056;SDS011;48016;50.284;18.860;2023-03-20T04:31:35;28.80;;;18.30;;
62056;SDS011;48016;50.284;18.860;2023-03-20T04:34:02;30.40;;;18.60;;
62056;SDS011;48016;50.284;18.860;2023-03-20T04:36:28;31.20;;;18.40;;
62056;SDS011;48016;50.284;18.860;2023-03-20T04:38:55;29.10;;;18.10;;
62056;SDS011;48016;50.284;18.860;2023-03-20T04:41:22;29.70;;;19.50;;
62056;SDS011;48016;50.284;18.860;2023-03-20T04:43:48;33.80;;;21.00;;
62056;SDS011;48016;50.284;18.860;2023-03-20T04:46:15;31.30;;;19.10;;
62056;SDS011;48016;50.284;18.860;2023-03-20T04:48:42;32.50;;;19.80;;
62056;SDS011;48016;50.284;18.860;2023-03-20T04:51:08;31.30;;;19.30;;
62056;SDS011;48016;50.284;18.860;2023-03-20T04:53:35;29.60;;;18.10;;
62056;SDS011;48016;50.284;18.860;2023-03-20T04:56:02;32.10;;;19.20;;
62056;SDS011;48016;50.284;18.860;2023-03-20T04:58:29;29.20;;;18.50;;
62056;SDS011;48016;50.284;18.860;2023-03-20T05:00:56;31.90;;;18.50;;
62056;SDS011;48016;50.284;18.860;2023-03-20T05:03:22;32.70;;;17.90;;
62056;SDS011;48016;50.284;18.860;2023-03-20T05:05:49;28.70;;;17.30;;
62056;SDS011;48016;50.284;18.860;2023-03-20T05:08:16;26.70;;;16.60;;
62056;SDS011;48016;50.284;18.860;2023-03-20T05:10:42;27.40;;;16.70;;
62056;SDS011;48016;50.284;18.860;2023-03-20T05:13:09;28.40;;;17.50;;
62056;SDS011;48016;50.284;18.860;2023-03-20T05:15:35;29.70;;;18.10;;
62056;SDS011;48016;50.284;18.860;2023-03-20T05:18:03;27.20;;;16.90;;
62056;SDS011;48016;50.284;18.860;2023-03-20T05:20:29;27.20;;;17.30;;
62056;SDS011;48016;50.284;18.860;2023-03-20T05:22:56;29.30;;;18.10;;
62056;SDS011;48016;50.284;18.860;2023-03-20T05:25:23;29.70;;;17.40;;
62056;SDS011;48016;50.284;18.860;2023-03-20T05:27:49;28.50;;;16.80;;
62056;SDS011;48016;50.284;18.860;2023-03-20T05:30:16;26.90;;;17.40;;
62056;SDS011;48016;50.284;18.860;2023-03-20T05:32:45;30.80;;;16.90;;
62056;SDS011;48016;50.284;18.860;2023-03-20T05:35:14;29.40;;;17.80;;
62056;SDS011;48016;50.284;18.860;2023-03-20T05:37:41;27.20;;;17.70;;
62056;SDS011;48016;50.284;18.860;2023-03-20T05:40:08;30.40;;;17.60;;
62056;SDS011;48016;50.284;18.860;2023-03-20T05:42:38;33.20;;;18.20;;
62056;SDS011;48016;50.284;18.860;2023-03-20T05:45:05;28.60;;;17.60;;
62056;SDS011;48016;50.284;18.860;2023-03-20T05:47:35;30.30;;;17.50;;
62056;SDS011;48016;50.284;18.860;2023-03-20T05:50:02;25.70;;;17.20;;
62056;SDS011;48016;50.284;18.860;2023-03-20T05:52:29;31.80;;;18.20;;
62056;SDS011;48016;50.284;18.860;2023-03-20T05:54:56;27.60;;;17.90;;
62056;SDS011;48016;50.284;18.860;2023-03-20T05:57:23;29.40;;;18.30;;
62056;SDS011;48016;50.284;18.860;2023-03-20T05:59:49;29.20;;;17.40;;
62056;SDS011;48016;50.284;18.860;2023-03-20T06:02:16;28.70;;;17.60;;
62056;SDS011;48016;50.284;18.860;2023-03-20T06:04:43;29.20;;;19.20;;
62056;SDS011;48016;50.284;18.860;2023-03-20T06:07:10;28.90;;;18.20;;
62056;SDS011;48016;50.284;18.860;2023-03-20T06:12:04;28.30;;;18.80;;
62056;SDS011;48016;50.284;18.860;2023-03-20T06:14:31;26.90;;;17.80;;
62056;SDS011;48016;50.284;18.860;2023-03-20T06:16:57;33.30;;;18.60;;
62056;SDS011;48016;50.284;18.860;2023-03-20T06:19:25;31.00;;;19.00;;
62056;SDS011;48016;50.284;18.860;2023-03-20T06:21:52;31.00;;;19.40;;
62056;SDS011;48016;50.284;18.860;2023-03-20T06:24:19;36.50;;;20.30;;
62056;SDS011;48016;50.284;18.860;2023-03-20T06:26:45;32.90;;;20.20;;
62056;SDS011;48016;50.284;18.860;2023-03-20T06:29:12;33.40;;;20.20;;
62056;SDS011;48016;50.284;18.860;2023-03-20T06:31:39;32.50;;;21.10;;
62056;SDS011;48016;50.284;18.860;2023-03-20T06:34:05;32.50;;;21.30;;
62056;SDS011;48016;50.284;18.860;2023-03-20T06:36:32;34.40;;;20.70;;
62056;SDS011;48016;50.284;18.860;2023-03-20T06:38:59;36.60;;;20.80;;
62056;SDS011;48016;50.284;18.860;2023-03-20T06:41:25;39.50;;;20.80;;
62056;SDS011;48016;50.284;18.860;2023-03-20T06:43:52;54.00;;;20.70;;
62056;SDS011;48016;50.284;18.860;2023-03-20T06:46:19;32.40;;;19.50;;
62056;SDS011;48016;50.284;18.860;2023-03-20T06:48:45;32.00;;;19.20;;
62056;SDS011;48016;50.284;18.860;2023-03-20T06:51:13;37.80;;;20.90;;
62056;SDS011;48016;50.284;18.860;2023-03-20T06:53:40;35.50;;;18.90;;
62056;SDS011;48016;50.284;18.860;2023-03-20T06:56:09;34.00;;;21.20;;
62056;SDS011;48016;50.284;18.860;2023-03-20T06:58:37;36.70;;;21.70;;
62056;SDS011;48016;50.284;18.860;2023-03-20T07:01:08;34.20;;;20.70;;
62056;SDS011;48016;50.284;18.860;2023-03-20T07:03:39;33.20;;;22.30;;
62056;SDS011;48016;50.284;18.860;2023-03-20T07:06:06;37.90;;;22.00;;
62056;SDS011;48016;50.284;18.860;2023-03-20T07:08:33;33.80;;;20.80;;
62056;SDS011;48016;50.284;18.860;2023-03-20T07:11:00;34.60;;;21.80;;
62056;SDS011;48016;50.284;18.860;2023-03-20T07:13:27;34.40;;;21.20;;
62056;SDS011;48016;50.284;18.860;2023-03-20T07:15:54;37.90;;;22.00;;
62056;SDS011;48016;50.284;18.860;2023-03-20T07:18:23;33.90;;;22.10;;
62056;SDS011;48016;50.284;18.860;2023-03-20T07:20:51;34.00;;;21.10;;
62056;SDS011;48016;50.284;18.860;2023-03-20T07:25:45;32.50;;;20.40;;
62056;SDS011;48016;50.284;18.860;2023-03-20T07:28:12;32.90;;;21.60;;
62056;SDS011;48016;50.284;18.860;2023-03-20T07:30:38;33.10;;;20.80;;
62056;SDS011;48016;50.284;18.860;2023-03-20T07:35:33;30.10;;;20.70;;
62056;SDS011;48016;50.284;18.860;2023-03-20T07:38:00;31.00;;;20.60;;
62056;SDS011;48016;50.284;18.860;2023-03-20T07:40:27;32.00;;;22.40;;
62056;SDS011;48016;50.284;18.860;2023-03-20T07:42:53;35.10;;;21.70;;
62056;SDS011;48016;50.284;18.860;2023-03-20T07:45:20;31.20;;;21.00;;
62056;SDS011;48016;50.284;18.860;2023-03-20T07:47:46;32.40;;;22.10;;
62056;SDS011;48016;50.284;18.860;2023-03-20T07:50:14;31.30;;;22.10;;
62056;SDS011;48016;50.284;18.860;2023-03-20T07:55:11;33.70;;;23.20;;
62056;SDS011;48016;50.284;18.860;2023-03-20T07:57:38;35.90;;;22.10;;
62056;SDS011;48016;50.284;18.860;2023-03-20T08:00:05;36.10;;;22.60;;
62056;SDS011;48016;50.284;18.860;2023-03-20T08:02:32;34.10;;;22.10;;
62056;SDS011;48016;50.284;18.860;2023-03-20T08:05:00;34.00;;;22.00;;
62056;SDS011;48016;50.284;18.860;2023-03-20T08:07:27;33.40;;;22.50;;
62056;SDS011;48016;50.284;18.860;2023-03-20T08:09:56;35.90;;;24.00;;
62056;SDS011;48016;50.284;18.860;2023-03-20T08:12:23;38.10;;;23.10;;
62056;SDS011;48016;50.284;18.860;2023-03-20T08:14:49;37.10;;;24.60;;
62056;SDS011;48016;50.284;18.860;2023-03-20T08:17:17;39.10;;;23.50;;
62056;SDS011;48016;50.284;18.860;2023-03-20T08:19:44;42.80;;;26.40;;
62056;SDS011;48016;50.284;18.860;2023-03-20T08:22:11;37.00;;;25.00;;
62056;SDS011;48016;50.284;18.860;2023-03-20T08:24:38;37.30;;;24.30;;
62056;SDS011;48016;50.284;18.860;2023-03-20T08:27:04;42.60;;;23.80;;
62056;SDS011;48016;50.284;18.860;2023-03-20T08:29:32;42.70;;;24.80;;
62056;SDS011;48016;50.284;18.860;2023-03-20T08:31:58;40.10;;;23.90;;
62056;SDS011;48016;50.284;18.860;2023-03-20T08:34:25;41.50;;;24.10;;
62056;SDS011;48016;50.284;18.860;2023-03-20T08:36:52;34.70;;;23.10;;
62056;SDS011;48016;50.284;18.860;2023-03-20T08:39:19;38.00;;;23.40;;
62056;SDS011;48016;50.284;18.860;2023-03-20T08:41:45;39.90;;;24.50;;
62056;SDS011;48016;50.284;18.860;2023-03-20T08:44:12;37.00;;;23.60;;
62056;SDS011;48016;50.284;18.860;2023-03-20T08:46:39;36.40;;;22.20;;
62056;SDS011;48016;50.284;18.860;2023-03-20T08:49:06;36.70;;;22.60;;
62056;SDS011;48016;50.284;18.860;2023-03-20T08:51:32;35.40;;;23.00;;
62056;SDS011;48016;50.284;18.860;2023-03-20T08:53:59;34.20;;;22.20;;
62056;SDS011;48016;50.284;18.860;2023-03-20T08:56:26;34.70;;;22.50;;
62056;SDS011;48016;50.284;18.860;2023-03-20T08:58:52;38.60;;;23.30;;
62056;SDS011;48016;50.284;18.860;2023-03-20T09:01:20;35.20;;;22.60;;
62056;SDS011;48016;50.284;18.860;2023-03-20T09:03:47;34.60;;;23.10;;
62056;SDS011;48016;50.284;18.860;2023-03-20T09:06:14;35.50;;;22.70;;
62056;SDS011;48016;50.284;18.860;2023-03-20T09:08:40;35.90;;;23.30;;
62056;SDS011;48016;50.284;18.860;2023-03-20T09:11:07;34.70;;;22.70;;
62056;SDS011;48016;50.284;18.860;2023-03-20T09:13:34;35.80;;;23.70;;
62056;SDS011;48016;50.284;18.860;2023-03-20T09:16:01;36.40;;;23.90;;
62056;SDS011;48016;50.284;18.860;2023-03-20T09:18:29;34.10;;;23.40;;
62056;SDS011;48016;50.284;18.860;2023-03-20T09:20:56;35.80;;;24.00;;
62056;SDS011;48016;50.284;18.860;2023-03-20T09:23:22;34.40;;;23.40;;
62056;SDS011;48016;50.284;18.860;2023-03-20T09:25:49;36.10;;;24.60;;
62056;SDS011;48016;50.284;18.860;2023-03-20T09:28:16;35.50;;;23.80;;
62056;SDS011;48016;50.284;18.860;2023-03-20T09:30:43;35.40;;;24.70;;
62056;SDS011;48016;50.284;18.860;2023-03-20T09:33:11;34.50;;;22.70;;
62056;SDS011;48016;50.284;18.860;2023-03-20T09:35:39;34.20;;;22.80;;
62056;SDS011;48016;50.284;18.860;2023-03-20T09:38:07;34.10;;;24.90;;
62056;SDS011;48016;50.284;18.860;2023-03-20T09:46:13;35.80;;;23.70;;
62056;SDS011;48016;50.284;18.860;2023-03-20T09:52:06;38.70;;;24.90;;
62056;SDS011;48016;50.284;18.860;2023-03-20T09:54:42;34.50;;;24.50;;
62056;SDS011;48016;50.284;18.860;2023-03-20T09:57:26;38.40;;;23.70;;
62056;SDS011;48016;50.284;18.860;2023-03-20T09:59:58;37.80;;;24.60;;
62056;SDS011;48016;50.284;18.860;2023-03-20T10:05:29;38.30;;;22.80;;
62056;SDS011;48016;50.284;18.860;2023-03-20T10:08:01;36.70;;;21.90;;
62056;SDS011;48016;50.284;18.860;2023-03-20T10:13:26;30.10;;;19.50;;
62056;SDS011;48016;50.284;18.860;2023-03-20T10:15:51;31.30;;;20.10;;
62056;SDS011;48016;50.284;18.860;2023-03-20T10:18:41;29.70;;;19.80;;
62056;SDS011;48016;50.284;18.860;2023-03-20T10:21:18;28.70;;;19.40;;
62056;SDS011;48016;50.284;18.860;2023-03-20T10:26:33;28.70;;;19.40;;
62056;SDS011;48016;50.284;18.860;2023-03-20T10:29:03;28.50;;;20.00;;
62056;SDS011;48016;50.284;18.860;2023-03-20T10:34:47;29.50;;;20.20;;
62056;SDS011;48016;50.284;18.860;2023-03-20T10:42:55;24.50;;;19.10;;
62056;SDS011;48016;50.284;18.860;2023-03-20T10:45:31;26.90;;;19.60;;
62056;SDS011;48016;50.284;18.860;2023-03-20T10:48:22;29.80;;;21.50;;
62056;SDS011;48016;50.284;18.860;2023-03-20T20:43:45;27.90;;;17.20;;
62056;SDS011;48016;50.284;18.860;2023-03-20T20:46:11;26.30;;;16.30;;
62056;SDS011;48016;50.284;18.860;2023-03-20T20:48:39;28.30;;;18.60;;
62056;SDS011;48016;50.284;18.860;2023-03-20T20:51:06;26.80;;;17.50;;
62056;SDS011;48016;50.284;18.860;2023-03-20T20:53:33;31.90;;;21.30;;
62056;SDS011;48016;50.284;18.860;2023-03-20T20:56:00;30.10;;;20.90;;
62056;SDS011;48016;50.284;18.860;2023-03-20T20:58:26;30.70;;;20.20;;
62056;SDS011;48016;50.284;18.860;2023-03-20T21:00:53;28.20;;;19.80;;
62056;SDS011;48016;50.284;18.860;2023-03-20T21:03:20;31.30;;;20.70;;
62056;SDS011;48016;50.284;18.860;2023-03-20T21:05:46;29.70;;;19.70;;
62056;SDS011;48016;50.284;18.860;2023-03-20T21:08:13;29.80;;;19.30;;
62056;SDS011;48016;50.284;18.860;2023-03-20T21:10:42;29.00;;;18.40;;
62056;SDS011;48016;50.284;18.860;2023-03-20T21:13:10;28.80;;;18.30;;
62056;SDS011;48016;50.284;18.860;2023-03-20T21:15:37;25.50;;;16.70;;
62056;SDS011;48016;50.284;18.860;2023-03-20T21:18:04;25.80;;;17.50;;
62056;SDS011;48016;50.284;18.860;2023-03-20T21:20:31;25.60;;;17.30;;
62056;SDS011;48016;50.284;18.860;2023-03-20T21:22:58;24.30;;;16.40;;
62056;SDS011;48016;50.284;18.860;2023-03-20T21:25:25;27.20;;;18.00;;
62056;SDS011;48016;50.284;18.860;2023-03-20T21:27:53;23.00;;;17.30;;
62056;SDS011;48016;50.284;18.860;2023-03-20T21:30:19;27.60;;;17.90;;
62056;SDS011;48016;50.284;18.860;2023-03-20T21:32:46;24.10;;;16.40;;
62056;SDS011;48016;50.284;18.860;2023-03-20T21:35:14;24.80;;;15.90;;
62056;SDS011;48016;50.284;18.860;2023-03-20T21:37:41;25.60;;;15.80;;
62056;SDS011;48016;50.284;18.860;2023-03-20T21:40:09;26.70;;;16.40;;
62056;SDS011;48016;50.284;18.860;2023-03-20T21:42:36;27.30;;;15.40;;
62056;SDS011;48016;50.284;18.860;2023-03-20T21:45:03;24.10;;;16.90;;
62056;SDS011;48016;50.284;18.860;2023-03-20T21:47:30;23.50;;;15.70;;
62056;SDS011;48016;50.284;18.860;2023-03-20T21:49:56;23.10;;;15.70;;
62056;SDS011;48016;50.284;18.860;2023-03-20T21:52:24;26.00;;;16.60;;
62056;SDS011;48016;50.284;18.860;2023-03-20T21:54:50;21.70;;;15.50;;
62056;SDS011;48016;50.284;18.860;2023-03-20T21:57:17;22.10;;;14.40;;
62056;SDS011;48016;50.284;18.860;2023-03-20T21:59:44;20.20;;;13.60;;
62056;SDS011;48016;50.284;18.860;2023-03-20T22:02:15;20.40;;;13.50;;
62056;SDS011;48016;50.284;18.860;2023-03-20T22:04:42;19.60;;;12.50;;
62056;SDS011;48016;50.284;18.860;2023-03-20T22:07:09;20.70;;;13.70;;
62056;SDS011;48016;50.284;18.860;2023-03-20T22:09:36;17.90;;;12.60;;
62056;SDS011;48016;50.284;18.860;2023-03-20T22:12:03;17.30;;;11.80;;
62056;SDS011;48016;50.284;18.860;2023-03-20T22:14:30;15.60;;;10.20;;
62056;SDS011;48016;50.284;18.860;2023-03-20T22:16:56;14.20;;;10.10;;
62056;SDS011;48016;50.284;18.860;2023-03-20T22:19:23;15.40;;;9.90;;
62056;SDS011;48016;50.284;18.860;2023-03-20T22:21:50;15.50;;;9.70;;
62056;SDS011;48016;50.284;18.860;2023-03-20T22:24:16;16.20;;;10.20;;
62056;SDS011;48016;50.284;18.860;2023-03-20T22:26:43;14.80;;;10.10;;
62056;SDS011;48016;50.284;18.860;2023-03-20T22:29:10;14.90;;;10.10;;
62056;SDS011;48016;50.284;18.860;2023-03-20T22:31:37;16.80;;;10.40;;
62056;SDS011;48016;50.284;18.860;2023-03-20T22:34:04;16.30;;;9.90;;
62056;SDS011;48016;50.284;18.860;2023-03-20T22:36:30;16.90;;;11.70;;
62056;SDS011;48016;50.284;18.860;2023-03-20T22:38:57;16.30;;;11.80;;
62056;SDS011;48016;50.284;18.860;2023-03-20T22:41:24;16.40;;;11.50;;
62056;SDS011;48016;50.284;18.860;2023-03-20T22:43:51;19.90;;;12.50;;
62056;SDS011;48016;50.284;18.860;2023-03-20T22:46:18;19.90;;;11.90;;
62056;SDS011;48016;50.284;18.860;2023-03-20T22:48:44;22.00;;;13.40;;
62056;SDS011;48016;50.284;18.860;2023-03-20T22:51:11;19.20;;;11.50;;
62056;SDS011;48016;50.284;18.860;2023-03-20T22:53:38;21.20;;;11.60;;
62056;SDS011;48016;50.284;18.860;2023-03-20T22:56:05;19.50;;;12.20;;
62056;SDS011;48016;50.284;18.860;2023-03-20T23:00:59;20.00;;;13.10;;
62056;SDS011;48016;50.284;18.860;2023-03-20T23:03:25;24.40;;;15.40;;
62056;SDS011;48016;50.284;18.860;2023-03-20T23:05:52;27.40;;;17.40;;
62056;SDS011;48016;50.284;18.860;2023-03-20T23:08:19;34.20;;;20.70;;
62056;SDS011;48016;50.284;18.860;2023-03-20T23:10:47;29.40;;;18.80;;
62056;SDS011;48016;50.284;18.860;2023-03-20T23:13:16;33.20;;;20.60;;
62056;SDS011;48016;50.284;18.860;2023-03-20T23:15:45;34.10;;;20.30;;
62056;SDS011;48016;50.284;18.860;2023-03-20T23:20:39;33.00;;;20.00;;
62056;SDS011;48016;50.284;18.860;2023-03-20T23:23:06;33.10;;;21.20;;
62056;SDS011;48016;50.284;18.860;2023-03-20T23:25:33;33.60;;;22.60;;
62056;SDS011;48016;50.284;18.860;2023-03-20T23:28:00;38.50;;;22.50;;
62056;SDS011;48016;50.284;18.860;2023-03-20T23:30:26;34.70;;;21.50;;
62056;SDS011;48016;50.284;18.860;2023-03-20T23:32:53;38.60;;;22.90;;
62056;SDS011;48016;50.284;18.860;2023-03-20T23:35:20;33.20;;;21.10;;
62056;SDS011;48016;50.284;18.860;2023-03-20T23:37:46;37.30;;;23.20;;
62056;SDS011;48016;50.284;18.860;2023-03-20T23:40:13;37.60;;;22.50;;
62056;SDS011;48016;50.284;18.860;2023-03-20T23:42:40;35.90;;;22.30;;
62056;SDS011;48016;50.284;18.860;2023-03-20T23:45:07;36.10;;;21.20;;
62056;SDS011;48016;50.284;18.860;2023-03-20T23:47:34;35.00;;;20.80;;
62056;SDS011;48016;50.284;18.860;2023-03-20T23:50:00;30.80;;;18.80;;
62056;SDS011;48016;50.284;18.860;2023-03-20T23:52:27;30.60;;;19.90;;
62056;SDS011;48016;50.284;18.860;2023-03-20T23:54:54;33.40;;;21.70;;
62056;SDS011;48016;50.284;18.860;2023-03-20T23:57:21;33.30;;;20.80;;
62056;SDS011;48016;50.284;18.860;2023-03-20T23:59:47;29.20;;;19.10;;
